createdAt,value
2022-11-14T00:00:34.443Z,96.48
2022-11-14T00:03:06.713Z,96.98
2022-11-14T00:05:36.475Z,96.87
2022-11-14T00:08:04.918Z,97.22
2022-11-14T00:10:33.343Z,96.31
2022-11-14T00:13:01.758Z,97.06
2022-11-14T00:15:30.359Z,96.08
2022-11-14T00:17:58.738Z,95.82
2022-11-14T00:20:27.174Z,96.64
2022-11-14T00:22:55.649Z,95.58
2022-11-14T00:25:24.109Z,96.25
2022-11-14T00:27:52.611Z,96.84
2022-11-14T00:30:21.044Z,97.27
2022-11-14T00:32:49.586Z,98.95
2022-11-14T00:35:35.043Z,98.38
2022-11-14T00:38:03.511Z,98.31
2022-11-14T00:40:32.133Z,98.64
2022-11-14T00:43:02.967Z,98.81
2022-11-14T00:45:31.410Z,98.22
2022-11-14T00:48:00.308Z,99.12
2022-11-14T00:50:28.724Z,98.45
2022-11-14T00:52:57.089Z,98.14
2022-11-14T00:55:25.465Z,97.82
2022-11-14T00:57:53.854Z,97.39
2022-11-14T01:00:22.830Z,97.40
2022-11-14T01:02:51.458Z,97.96
2022-11-14T01:05:19.980Z,97.24
2022-11-14T01:07:48.360Z,96.27
2022-11-14T01:10:17.351Z,96.98
2022-11-14T01:12:45.859Z,97.23
2022-11-14T01:15:14.312Z,96.71
2022-11-14T01:17:42.705Z,96.20
2022-11-14T01:20:11.225Z,96.59
2022-11-14T01:22:39.621Z,96.14
2022-11-14T01:25:08.102Z,95.11
2022-11-14T01:27:36.441Z,94.98
2022-11-14T01:30:05.525Z,95.25
2022-11-14T02:09:47.500Z,100.00
2022-11-14T02:12:18.898Z,100.00
2022-11-14T02:14:53.067Z,100.00
2022-11-14T02:17:29.447Z,100.00
2022-11-14T02:20:05.680Z,100.00
2022-11-14T02:22:34.460Z,100.00
2022-11-14T02:25:03.184Z,100.00
2022-11-14T02:27:33.399Z,100.00
2022-11-14T02:30:12.507Z,100.00
2022-11-14T02:35:29.814Z,100.00
2022-11-14T02:37:58.227Z,100.00
2022-11-14T02:40:27.055Z,100.00
2022-11-14T02:42:55.413Z,100.00
2022-11-14T02:45:23.868Z,100.00
2022-11-14T02:47:52.379Z,100.00
2022-11-14T02:50:20.852Z,100.00
2022-11-14T02:52:49.238Z,100.00
2022-11-14T02:55:17.694Z,100.00
2022-11-14T02:57:46.139Z,100.00
2022-11-14T03:00:15.552Z,100.00
2022-11-14T03:02:44.277Z,99.43
2022-11-14T03:05:12.660Z,98.29
2022-11-14T03:07:41.008Z,97.96
2022-11-14T03:10:09.936Z,97.89
2022-11-14T03:12:38.680Z,97.45
2022-11-14T03:15:08.985Z,95.73
2022-11-14T03:17:37.656Z,94.89
2022-11-14T03:20:07.299Z,95.23
2022-11-14T03:22:35.904Z,96.76
2022-11-14T03:25:04.488Z,98.49
2022-11-14T03:27:32.918Z,98.20
2022-11-14T03:30:01.450Z,94.91
2022-11-14T03:32:29.798Z,94.08
2022-11-14T03:34:58.899Z,93.32
2022-11-14T03:37:27.251Z,94.35
2022-11-14T03:39:55.783Z,94.81
2022-11-14T03:42:24.162Z,95.20
2022-11-14T03:44:52.605Z,93.52
2022-11-14T03:47:20.986Z,94.07
2022-11-14T03:49:49.350Z,94.35
2022-11-14T03:52:17.900Z,94.63
2022-11-14T03:54:46.321Z,97.83
2022-11-14T03:57:14.775Z,100.00
2022-11-14T03:59:43.147Z,100.00
2022-11-14T04:02:11.581Z,100.00
2022-11-14T04:04:39.983Z,100.00
2022-11-14T04:07:08.467Z,100.00
2022-11-14T04:09:36.820Z,100.00
2022-11-14T04:12:05.271Z,100.00
2022-11-14T04:14:33.707Z,100.00
2022-11-14T04:17:02.643Z,99.61
2022-11-14T04:19:31.059Z,96.96
2022-11-14T04:21:59.548Z,95.85
2022-11-14T04:24:27.992Z,94.70
2022-11-14T04:26:56.617Z,93.95
2022-11-14T04:29:25.072Z,93.80
2022-11-14T04:31:53.464Z,94.04
2022-11-14T04:34:21.817Z,94.48
2022-11-14T04:36:51.197Z,94.96
2022-11-14T04:39:20.244Z,94.61
2022-11-14T04:41:48.620Z,95.20
2022-11-14T04:44:17.050Z,95.42
2022-11-14T04:46:46.552Z,95.98
2022-11-14T04:49:15.079Z,96.06
2022-11-14T04:51:43.867Z,94.41
2022-11-14T04:54:12.217Z,93.76
2022-11-14T04:56:40.636Z,95.34
2022-11-14T04:59:09.264Z,94.42
2022-11-14T05:01:37.788Z,96.18
2022-11-14T05:04:06.392Z,96.75
2022-11-14T05:06:34.878Z,96.41
2022-11-14T05:09:03.294Z,95.62
2022-11-14T05:11:31.812Z,95.07
2022-11-14T05:14:00.373Z,94.26
2022-11-14T05:16:28.777Z,95.62
2022-11-14T05:18:57.268Z,95.96
2022-11-14T05:21:25.646Z,96.19
2022-11-14T05:23:54.276Z,96.23
2022-11-14T05:26:23.247Z,95.67
2022-11-14T05:28:51.646Z,96.08
2022-11-14T05:31:20.113Z,96.72
2022-11-14T05:33:48.881Z,96.65
2022-11-14T05:36:18.290Z,95.07
2022-11-14T05:38:46.680Z,94.34
2022-11-14T05:41:20.573Z,94.47
2022-11-14T05:43:49.274Z,95.90
2022-11-14T05:46:18.165Z,96.75
2022-11-14T05:48:46.601Z,97.33
2022-11-14T05:51:15.227Z,96.43
2022-11-14T05:53:43.644Z,95.25
2022-11-14T05:56:14.075Z,95.27
2022-11-14T05:58:42.825Z,96.67
2022-11-14T06:01:14.457Z,96.90
2022-11-14T06:03:48.801Z,96.36
2022-11-14T06:06:21.274Z,96.52
2022-11-14T06:08:50.030Z,96.50
2022-11-14T06:11:21.076Z,96.99
2022-11-14T06:13:49.949Z,96.84
2022-11-14T06:16:20.699Z,96.10
2022-11-14T06:18:49.573Z,96.68
2022-11-14T06:21:20.973Z,97.00
2022-11-14T06:23:50.055Z,96.34
2022-11-14T06:26:32.220Z,96.47
2022-11-14T06:29:01.345Z,96.14
2022-11-14T06:31:29.995Z,95.74
2022-11-14T06:33:58.373Z,95.35
2022-11-14T06:36:26.846Z,95.72
2022-11-14T06:38:55.235Z,95.42
2022-11-14T06:41:24.521Z,95.55
2022-11-14T06:43:54.790Z,96.18
2022-11-14T06:46:24.138Z,96.39
2022-11-14T06:48:53.022Z,96.30
2022-11-14T06:51:21.650Z,95.19
2022-11-14T06:53:50.038Z,95.79
2022-11-14T06:56:20.720Z,96.62
2022-11-14T06:58:50.722Z,97.03
2022-11-14T07:01:22.086Z,96.60
2022-11-14T07:03:50.632Z,97.62
2022-11-14T07:06:23.489Z,97.78
2022-11-14T07:08:55.362Z,97.40
2022-11-14T07:11:29.518Z,97.18
2022-11-14T07:14:00.513Z,95.82
2022-11-14T07:16:35.076Z,96.89
2022-11-14T07:19:06.035Z,96.72
2022-11-14T07:21:36.092Z,96.02
2022-11-14T07:24:04.737Z,96.37
2022-11-14T07:26:33.240Z,96.82
2022-11-14T07:29:02.764Z,95.92
2022-11-14T07:31:31.787Z,96.97
2022-11-14T07:34:00.259Z,96.47
2022-11-14T07:36:28.675Z,96.90
2022-11-14T07:38:57.094Z,97.68
2022-11-14T07:41:25.460Z,97.64
2022-11-14T07:43:53.871Z,97.77
2022-11-14T07:46:22.330Z,96.97
2022-11-14T07:48:50.735Z,98.05
2022-11-14T07:51:21.118Z,97.39
2022-11-14T07:53:49.498Z,98.40
2022-11-14T07:56:18.268Z,98.34
2022-11-14T07:58:46.886Z,99.30
2022-11-14T08:01:15.959Z,98.83
2022-11-14T08:03:46.231Z,100.00
2022-11-14T08:06:17.535Z,100.00
2022-11-14T08:08:46.020Z,100.00
2022-11-14T08:11:23.038Z,100.00
2022-11-14T08:14:02.875Z,100.00
2022-11-14T08:16:31.279Z,100.00
2022-11-14T08:18:59.773Z,100.00
2022-11-14T08:21:28.175Z,100.00
2022-11-14T08:23:56.618Z,100.00
2022-11-14T08:26:27.945Z,100.00
2022-11-14T08:28:59.871Z,100.00
2022-11-14T08:31:28.835Z,98.97
2022-11-14T08:33:57.228Z,99.46
2022-11-14T08:36:25.763Z,98.90
2022-11-14T08:38:57.515Z,98.55
2022-11-14T08:41:29.432Z,98.99
2022-11-14T08:43:57.813Z,100.00
2022-11-14T08:46:26.192Z,100.00
2022-11-14T08:48:54.649Z,100.00
2022-11-14T08:51:23.085Z,100.00
2022-11-14T08:53:52.429Z,100.00
2022-11-14T08:56:20.817Z,100.00
2022-11-14T08:58:49.223Z,99.61
2022-11-14T09:01:17.643Z,98.49
2022-11-14T09:03:46.452Z,97.43
2022-11-14T09:06:15.123Z,95.70
2022-11-14T09:08:43.658Z,95.01
2022-11-14T09:11:14.344Z,94.37
2022-11-14T09:13:46.630Z,93.38
2022-11-14T09:16:15.160Z,92.44
2022-11-14T09:18:43.628Z,91.98
2022-11-14T09:21:12.719Z,91.97
2022-11-14T09:23:41.121Z,91.25
2022-11-14T09:26:10.798Z,90.88
2022-11-14T09:28:39.048Z,90.64
2022-11-14T09:31:11.683Z,91.14
2022-11-14T09:33:40.710Z,90.98
2022-11-14T09:36:15.780Z,91.10
2022-11-14T09:38:44.886Z,90.22
2022-11-14T09:41:46.791Z,89.66
2022-11-14T09:44:21.286Z,88.95
2022-11-14T09:46:58.606Z,87.93
2022-11-14T09:49:39.750Z,87.80
2022-11-14T09:52:37.578Z,88.13
2022-11-14T09:55:13.503Z,86.71
2022-11-14T09:57:46.317Z,86.40
2022-11-14T10:00:27.179Z,86.51
2022-11-14T10:03:16.406Z,86.03
2022-11-14T10:05:49.912Z,85.74
2022-11-14T10:09:02.480Z,85.28
2022-11-14T10:11:36.349Z,85.11
2022-11-14T10:15:06.517Z,85.59
2022-11-14T10:18:33.401Z,86.79
2022-11-14T10:21:41.806Z,85.96
2022-11-14T10:24:13.033Z,85.73
2022-11-14T10:27:10.193Z,86.35
2022-11-14T10:30:04.251Z,86.36
2022-11-14T10:32:40.240Z,85.34
2022-11-14T10:35:35.317Z,84.57
2022-11-14T10:38:17.937Z,84.44
2022-11-14T10:41:02.903Z,84.58
2022-11-14T10:43:50.596Z,84.92
2022-11-14T10:46:32.045Z,84.46
2022-11-14T10:49:01.382Z,84.62
2022-11-14T10:51:45.347Z,84.38
2022-11-14T10:54:28.911Z,83.15
2022-11-14T10:56:57.655Z,82.83
2022-11-14T10:59:27.717Z,82.27
2022-11-14T11:02:00.008Z,81.63
2022-11-14T11:04:34.149Z,81.87
2022-11-14T11:07:31.127Z,82.63
2022-11-14T11:10:20.754Z,82.21
2022-11-14T11:12:55.352Z,81.13
2022-11-14T11:15:24.735Z,80.73
2022-11-14T11:18:04.306Z,79.98
2022-11-14T11:20:39.074Z,79.21
2022-11-14T11:23:12.123Z,78.01
2022-11-14T11:25:44.250Z,76.18
2022-11-14T11:28:21.622Z,75.71
2022-11-14T11:31:01.041Z,75.35
2022-11-14T11:33:38.288Z,74.98
2022-11-14T11:36:15.537Z,75.54
2022-11-14T11:38:44.385Z,74.84
2022-11-14T11:42:06.198Z,72.99
2022-11-14T11:44:23.055Z,72.88
2022-11-14T11:47:01.686Z,73.75
2022-11-14T11:49:41.503Z,73.28
2022-11-14T11:52:32.824Z,73.01
2022-11-14T11:55:07.050Z,73.72
2022-11-14T11:57:54.878Z,73.77
2022-11-14T12:00:24.031Z,73.25
2022-11-14T12:02:54.347Z,73.93
2022-11-14T12:05:54.184Z,73.83
2022-11-14T12:08:46.999Z,73.13
2022-11-14T12:11:23.343Z,73.17
2022-11-14T12:14:08.069Z,70.41
2022-11-14T12:16:55.453Z,70.47
2022-11-14T12:19:26.811Z,71.80
2022-11-14T12:22:41.684Z,72.94
2022-11-14T12:25:36.827Z,71.67
2022-11-14T12:28:33.921Z,71.23
2022-11-14T12:31:06.700Z,71.27
2022-11-14T12:33:41.244Z,71.39
2022-11-14T12:36:14.033Z,70.64
2022-11-14T12:38:50.700Z,68.21
2022-11-14T12:41:40.369Z,68.39
2022-11-14T12:44:30.374Z,68.03
2022-11-14T12:47:07.275Z,67.40
2022-11-14T12:49:48.329Z,68.17
2022-11-14T12:52:54.899Z,67.63
2022-11-14T12:55:26.353Z,67.44
2022-11-14T12:58:03.609Z,68.40
2022-11-14T13:00:32.499Z,68.23
2022-11-14T13:03:15.570Z,68.58
2022-11-14T13:06:01.110Z,68.28
2022-11-14T13:08:38.394Z,68.29
2022-11-14T13:11:59.096Z,68.17
2022-11-14T13:14:45.409Z,67.64
2022-11-14T13:17:36.623Z,68.10
2022-11-14T13:20:50.599Z,68.48
2022-11-14T13:23:28.433Z,67.85
2022-11-14T13:26:11.757Z,68.37
2022-11-14T13:28:40.211Z,68.67
2022-11-14T13:31:20.151Z,68.49
2022-11-14T13:33:59.044Z,68.78
2022-11-14T13:36:41.265Z,68.43
2022-11-14T13:40:06.218Z,68.19
2022-11-14T13:42:36.981Z,68.34
2022-11-14T13:45:34.110Z,68.02
2022-11-14T13:48:24.480Z,67.85
2022-11-14T13:51:10.047Z,68.04
2022-11-14T13:53:46.084Z,67.95
2022-11-14T13:56:43.755Z,67.86
2022-11-14T13:59:34.977Z,68.12
2022-11-14T14:02:13.963Z,68.58
2022-11-14T14:04:58.414Z,69.15
2022-11-14T14:07:57.903Z,69.25
2022-11-14T14:10:55.841Z,69.10
2022-11-14T14:13:56.154Z,69.10
2022-11-14T14:16:32.999Z,68.66
2022-11-14T14:19:24.515Z,68.88
2022-11-14T14:22:34.232Z,69.48
2022-11-14T14:25:20.400Z,69.86
2022-11-14T14:28:16.967Z,69.65
2022-11-14T14:31:11.501Z,69.86
2022-11-14T14:33:45.169Z,69.61
2022-11-14T14:36:28.661Z,70.25
2022-11-14T14:39:19.218Z,70.02
2022-11-14T14:41:48.136Z,70.27
2022-11-14T14:44:54.266Z,70.17
2022-11-14T14:47:44.182Z,70.35
2022-11-14T14:50:58.580Z,70.45
2022-11-14T14:53:36.583Z,70.50
2022-11-14T14:56:25.910Z,70.97
2022-11-14T14:59:24.203Z,71.20
2022-11-14T15:01:53.344Z,70.98
2022-11-14T15:04:26.370Z,71.09
2022-11-14T15:06:57.429Z,71.49
2022-11-14T15:09:30.822Z,71.52
2022-11-14T15:12:01.447Z,72.12
2022-11-14T15:14:35.687Z,72.75
2022-11-14T15:17:05.202Z,72.71
2022-11-14T15:19:42.935Z,73.09
2022-11-14T15:22:11.763Z,73.46
2022-11-14T15:24:40.316Z,73.59
2022-11-14T15:27:21.290Z,73.73
2022-11-14T15:29:52.473Z,74.23
2022-11-14T15:32:29.430Z,74.15
2022-11-14T15:35:37.653Z,74.94
2022-11-14T15:41:27.966Z,75.54
2022-11-14T15:44:02.023Z,76.33
2022-11-14T15:46:36.283Z,76.36
2022-11-14T15:49:32.828Z,76.40
2022-11-14T15:52:03.529Z,76.93
2022-11-14T15:54:37.730Z,76.89
2022-11-14T15:57:17.413Z,76.44
2022-11-14T15:59:46.156Z,76.67
2022-11-14T16:02:33.434Z,76.85
2022-11-14T16:05:05.116Z,76.81
2022-11-14T16:07:33.518Z,77.37
2022-11-14T16:10:02.065Z,77.55
2022-11-14T16:12:30.509Z,78.21
2022-11-14T16:14:58.969Z,78.72
2022-11-14T16:17:27.372Z,79.19
2022-11-14T16:19:55.838Z,78.80
2022-11-14T16:22:24.272Z,78.38
2022-11-14T16:24:53.778Z,77.96
2022-11-14T16:27:22.203Z,78.07
2022-11-14T16:29:51.313Z,78.26
2022-11-14T16:32:19.779Z,78.03
2022-11-14T16:34:48.312Z,78.06
2022-11-14T16:37:16.880Z,78.53
2022-11-14T16:39:45.300Z,78.83
2022-11-14T16:42:13.856Z,79.06
2022-11-14T16:44:47.763Z,78.91
2022-11-14T16:47:19.838Z,78.97
2022-11-14T16:49:48.275Z,79.24
2022-11-14T16:52:17.136Z,78.54
2022-11-14T16:54:45.628Z,78.29
2022-11-14T16:57:14.297Z,78.52
2022-11-14T16:59:42.718Z,78.85
2022-11-14T17:02:17.722Z,78.45
2022-11-14T17:04:46.885Z,79.10
2022-11-14T17:07:18.939Z,79.03
2022-11-14T17:09:51.124Z,79.09
2022-11-14T17:12:19.661Z,80.16
2022-11-14T17:14:48.030Z,80.66
2022-11-14T17:17:16.775Z,80.87
2022-11-14T17:19:46.016Z,81.31
2022-11-14T17:22:15.333Z,81.81
2022-11-14T17:24:44.174Z,82.19
2022-11-14T17:27:13.087Z,82.37
2022-11-14T17:29:41.619Z,82.59
2022-11-14T17:32:10.152Z,82.91
2022-11-14T17:34:38.625Z,82.99
2022-11-14T17:37:07.340Z,83.23
2022-11-14T17:39:35.874Z,83.34
2022-11-14T17:42:04.407Z,83.26
2022-11-14T17:44:32.840Z,83.29
2022-11-14T17:47:01.456Z,83.35
2022-11-14T17:49:30.268Z,83.58
2022-11-14T17:51:58.696Z,83.58
2022-11-14T17:54:27.264Z,84.26
2022-11-14T17:56:56.046Z,84.38
2022-11-14T17:59:24.589Z,84.65
2022-11-14T18:01:57.550Z,84.59
2022-11-14T18:04:26.210Z,84.90
2022-11-14T18:06:54.525Z,85.00
2022-11-14T18:09:23.012Z,85.38
2022-11-14T18:11:51.501Z,85.57
2022-11-14T18:14:19.968Z,86.22
2022-11-14T18:17:11.907Z,86.12
2022-11-14T18:19:37.169Z,86.21
2022-11-14T18:22:07.649Z,86.10
2022-11-14T18:24:36.047Z,86.00
2022-11-14T18:27:04.422Z,85.96
2022-11-14T18:29:32.817Z,85.23
2022-11-14T18:32:01.180Z,85.54
2022-11-14T18:34:29.795Z,84.57
2022-11-14T18:36:58.284Z,84.08
2022-11-14T18:39:28.996Z,84.13
2022-11-14T18:41:59.787Z,84.37
2022-11-14T18:44:28.837Z,84.46
2022-11-14T18:46:57.263Z,84.20
2022-11-14T18:49:28.304Z,84.07
2022-11-14T18:51:57.705Z,84.60
2022-11-14T18:54:26.260Z,84.50
2022-11-14T18:56:54.732Z,84.16
2022-11-14T18:59:23.294Z,83.38
2022-11-14T19:01:54.487Z,84.03
2022-11-14T19:04:23.627Z,83.43
2022-11-14T19:06:52.076Z,83.38
2022-11-14T19:09:39.433Z,83.53
2022-11-14T19:12:21.903Z,83.06
2022-11-14T19:14:53.912Z,83.82
2022-11-14T19:17:22.665Z,83.43
2022-11-14T19:19:53.476Z,83.50
2022-11-14T19:22:25.406Z,83.08
2022-11-14T19:24:59.125Z,82.95
2022-11-14T19:27:27.673Z,83.68
2022-11-14T19:29:56.070Z,83.06
2022-11-14T19:32:24.750Z,81.99
2022-11-14T19:34:53.088Z,82.20
2022-11-14T19:37:21.489Z,81.85
2022-11-14T19:39:52.522Z,82.74
2022-11-14T19:42:21.023Z,82.48
2022-11-14T19:44:49.215Z,82.57
2022-11-14T19:47:19.951Z,82.04
2022-11-14T19:49:51.349Z,82.25
2022-11-14T19:52:20.601Z,82.46
2022-11-14T19:54:49.245Z,82.65
2022-11-14T19:57:17.742Z,82.46
2022-11-14T19:59:46.281Z,82.68
2022-11-14T20:02:15.322Z,82.65
2022-11-14T20:04:43.740Z,82.78
2022-11-14T20:07:12.262Z,83.05
2022-11-14T20:09:41.074Z,83.24
2022-11-14T20:12:09.287Z,83.23
2022-11-14T20:14:37.709Z,83.25
2022-11-14T20:17:06.264Z,82.29
2022-11-14T20:19:34.725Z,81.74
2022-11-14T20:22:03.396Z,82.04
2022-11-14T20:24:33.688Z,82.12
2022-11-14T20:27:02.489Z,82.35
2022-11-14T20:29:31.152Z,82.29
2022-11-14T20:31:59.595Z,82.45
2022-11-14T20:34:28.427Z,82.20
2022-11-14T20:37:10.465Z,82.44
2022-11-14T20:39:40.211Z,83.10
2022-11-14T20:42:08.728Z,82.79
2022-11-14T20:44:37.273Z,83.32
2022-11-14T20:47:10.863Z,83.18
2022-11-14T20:49:39.987Z,83.10
2022-11-14T20:52:08.595Z,83.24
2022-11-14T20:54:37.161Z,82.75
2022-11-14T20:57:05.673Z,83.12
2022-11-14T20:59:34.261Z,83.54
2022-11-14T21:02:02.849Z,83.67
2022-11-14T21:04:31.488Z,83.90
2022-11-14T21:07:00.007Z,83.64
2022-11-14T21:09:28.597Z,84.38
2022-11-14T21:11:57.090Z,84.79
2022-11-14T21:14:25.535Z,84.92
2022-11-14T21:16:53.944Z,84.96
2022-11-14T21:19:22.821Z,85.49
2022-11-14T21:21:51.281Z,85.71
2022-11-14T21:24:19.874Z,85.83
2022-11-14T21:26:48.293Z,86.06
2022-11-14T21:29:16.847Z,85.66
2022-11-14T21:31:47.144Z,85.81
2022-11-14T21:34:19.446Z,85.90
2022-11-14T21:36:48.324Z,86.73
2022-11-14T21:39:17.694Z,87.21
2022-11-14T21:41:48.427Z,87.83
2022-11-14T21:44:18.174Z,88.48
2022-11-14T21:46:48.548Z,88.43
2022-11-14T21:49:17.184Z,88.32
2022-11-14T21:51:45.622Z,88.96
2022-11-14T21:54:14.130Z,89.29
2022-11-14T21:56:42.495Z,89.22
2022-11-14T21:59:18.818Z,89.27
2022-11-14T22:02:08.094Z,89.43
2022-11-14T22:04:37.229Z,89.45
2022-11-14T22:07:08.453Z,88.91
2022-11-14T22:09:42.507Z,88.86
2022-11-14T22:12:13.502Z,89.23
2022-11-14T22:14:41.579Z,89.20
2022-11-14T22:17:10.061Z,89.61
2022-11-14T22:19:38.569Z,89.60
2022-11-14T22:22:07.063Z,89.68
2022-11-14T22:24:35.537Z,89.45
2022-11-14T22:27:03.950Z,89.49
2022-11-14T22:29:32.378Z,88.57
2022-11-14T22:32:00.847Z,88.58
2022-11-14T22:34:28.847Z,88.69
2022-11-14T22:36:57.326Z,88.70
2022-11-14T22:39:25.762Z,88.92
2022-11-14T22:41:54.218Z,89.08
2022-11-14T22:44:22.637Z,89.83
2022-11-14T22:46:51.320Z,89.93
2022-11-14T22:49:21.184Z,89.86
2022-11-14T22:51:50.001Z,89.05
2022-11-14T22:54:18.798Z,88.90
2022-11-14T22:56:47.272Z,87.66
2022-11-14T22:59:15.760Z,87.26
2022-11-14T23:01:44.282Z,85.10
2022-11-14T23:04:12.815Z,85.92
2022-11-14T23:06:41.581Z,86.43
2022-11-14T23:09:09.720Z,86.40
2022-11-14T23:11:38.131Z,86.59
2022-11-14T23:14:06.358Z,86.33
2022-11-14T23:16:35.702Z,86.55
2022-11-14T23:19:05.833Z,86.73
2022-11-14T23:21:37.038Z,86.63
2022-11-14T23:24:13.741Z,87.46
2022-11-14T23:26:42.262Z,88.17
2022-11-14T23:29:15.052Z,88.15
2022-11-14T23:31:43.518Z,88.40
2022-11-14T23:34:11.991Z,88.80
2022-11-14T23:36:40.392Z,88.77
2022-11-14T23:39:08.914Z,89.27
2022-11-14T23:41:37.328Z,89.41
2022-11-14T23:44:05.760Z,89.77
2022-11-14T23:46:34.517Z,90.07
2022-11-14T23:49:02.986Z,90.29
2022-11-14T23:51:31.507Z,90.61
2022-11-14T23:53:59.655Z,91.09
2022-11-14T23:56:28.098Z,91.15
2022-11-14T23:58:56.542Z,91.02
